Agosto 2004

Fecha / Hora Temperatura (*F) Dew Point (*F) Humedad Relativa (%)
8/1/2004 0:25 70.39 51.2 50.6
8/1/2004 0:55 69.71 51.1 51.6
8/1/2004 1:25 69.02 50.72 52.1
8/1/2004 1:55 69.02 50.72 52.1
8/1/2004 2:25 68.33 51.16 54.2
8/1/2004 2:55 68.33 51.4 54.7
8/1/2004 3:25 67.65 50.78 54.7
8/1/2004 3:55 66.96 51.38 57.3
8/1/2004 4:25 66.28 51.5 58.9
8/1/2004 4:55 66.28 51.5 58.9
8/1/2004 5:25 64.91 50.44 59.4
8/1/2004 5:55 65.59 50.84 58.9
8/1/2004 6:25 72.46 48.66 42.9
8/1/2004 6:55 76.62 44.5 31.9
8/1/2004 7:25 75.92 41.86 29.5
8/1/2004 7:55 76.62 41.56 28.5
8/1/2004 8:25 78.71 38.38 23.5
8/1/2004 8:55 81.53 34.94 18.7
8/1/2004 9:25 82.95 35.54 18.3
8/1/2004 9:55 85.1 36.74 17.9
8/1/2004 10:25 86.55 34.12 15.4
8/1/2004 10:55 88.01 38.5 17.5
8/1/2004 11:25 88.74 36.5 15.8
8/1/2004 11:55 90.22 37.68 15.8
8/1/2004 12:25 90.22 37.02 15.4
8/1/2004 12:55 90.96 39.52 16.6
8/1/2004 13:25 90.22 40.28 17.5
8/1/2004 13:55 90.96 39.52 16.6
8/1/2004 14:25 90.22 39.54 17
8/1/2004 14:55 90.22 39.54 17
8/1/2004 15:25 89.48 42.48 19.5
8/1/2004 15:55 88.01 41.94 20
8/1/2004 16:25 85.83 43.76 23
8/1/2004 16:55 84.38 44.54 24.8
8/1/2004 17:25 82.95 46.14 27.6
8/1/2004 17:55 80.82 46.52 30
8/1/2004 18:25 78.01 47.24 33.8
8/1/2004 18:55 76.62 46.4 34.3
8/1/2004 19:25 75.22 47.4 37.3
8/1/2004 19:55 73.84 47.22 38.8
8/1/2004 20:25 73.15 47.94 40.8
8/1/2004 20:55 72.46 48.96 43.4
8/1/2004 21:25 71.08 48.32 44.4
8/1/2004 21:55 70.39 48 44.9
8/1/2004 22:25 70.39 48.58 45.9
8/1/2004 22:55 69.71 48.6 47
8/1/2004 23:25 69.02 48.8 48.5
8/1/2004 23:55 68.33 49.04 50.1
8/2/2004 0:25 67.65 48.94 51.1
8/2/2004 0:55 66.96 49.14 52.7
8/2/2004 1:25 66.28 51.5 58.9
8/2/2004 1:55 65.59 50.62 58.4
8/2/2004 2:25 64.91 49.74 57.9
8/2/2004 2:55 64.22 49.56 58.9
8/2/2004 3:25 62.85 50.3 63.5
8/2/2004 3:55 62.85 50.76 64.6
8/2/2004 4:25 62.85 51.38 66.1
8/2/2004 4:55 62.17 51.14 67.1
8/2/2004 5:25 61.48 51.46 69.6
8/2/2004 5:55 61.48 52.8 73.1
8/2/2004 6:25 66.28 54.64 66.1
8/2/2004 6:55 67.65 53.46 60.4
8/2/2004 7:25 67.65 52.3 57.9
8/2/2004 7:55 69.71 51.1 51.6
8/2/2004 8:25 70.39 49.22 47
8/2/2004 8:55 74.53 47.14 37.8
8/2/2004 9:25 75.92 44.3 32.4
8/2/2004 9:55 78.01 41.44 27.1
8/2/2004 10:25 79.41 44.42 29
8/2/2004 10:55 82.24 45.04 27.1
8/2/2004 11:25 82.95 39.88 21.7
8/2/2004 11:55 85.1 38.9 19.5
8/2/2004 12:25 84.38 43.12 23.5
8/2/2004 12:55 85.1 44.72 24.4
8/2/2004 13:25 86.55 45.38 23.9
8/2/2004 13:55 86.55 44.38 23
8/2/2004 14:25 88.01 43.58 21.3
8/2/2004 14:55 87.28 43.46 21.7
8/2/2004 15:25 87.28 43.94 22.1
8/2/2004 15:55 86.55 45.38 23.9
8/2/2004 16:25 85.83 44.34 23.5
8/2/2004 16:55 84.38 46.48 26.7
8/2/2004 17:25 82.95 46.6 28.1
8/2/2004 17:55 80.82 48.96 32.9
8/2/2004 18:25 78.01 50.22 37.8
8/2/2004 18:55 75.92 50.74 41.3
8/2/2004 19:25 74.53 52.64 46.4
8/2/2004 19:55 72.46 52.22 49
8/2/2004 20:25 71.77 52.2 50.1
8/2/2004 20:55 70.39 52.56 53.2
8/2/2004 21:25 69.71 53.22 55.8
8/2/2004 21:55 69.02 53.3 57.3
8/2/2004 22:25 68.33 52.96 57.9
8/2/2004 22:55 67.65 52.3 57.9
8/2/2004 23:25 66.96 52.14 58.9
8/2/2004 23:55 66.28 51.72 59.4
8/3/2004 0:25 66.28 51.72 59.4
8/3/2004 0:55 66.28 52.44 61
8/3/2004 1:25 65.59 52.02 61.5
8/3/2004 1:55 64.91 51.6 62
8/3/2004 2:25 64.22 50.94 62
8/3/2004 2:55 63.54 51.4 64.6
8/3/2004 3:25 63.54 51.62 65.1
8/3/2004 3:55 62.85 51.18 65.6
8/3/2004 4:25 62.17 51.54 68.1
8/3/2004 4:55 62.17 52.32 70.1
8/3/2004 5:25 61.48 52.26 71.7
8/3/2004 5:55 62.17 53.08 72.1
8/3/2004 6:25 66.28 55.24 67.6
8/3/2004 6:55 70.39 55.34 58.9
8/3/2004 7:25 71.08 52.1 51.1
8/3/2004 7:55 73.15 51.74 47
8/3/2004 8:25 74.53 50.84 43.4
8/3/2004 8:55 76.62 49.68 38.8
8/3/2004 9:25 78.01 48.76 35.8
8/3/2004 9:55 80.82 46.86 30.4
8/3/2004 10:25 82.24 46.38 28.5
8/3/2004 10:55 85.1 43.72 23.5
8/3/2004 11:25 86.55 45.92 24.4
8/3/2004 11:55 86.55 46.36 24.8
8/3/2004 12:25 88.01 47.14 24.4
8/3/2004 12:55 88.01 44.06 21.7
8/3/2004 13:25 88.74 42.54 20
8/3/2004 13:55 89.48 41.4 18.7
8/3/2004 14:25 90.22 40.86 17.9
8/3/2004 14:55 89.48 40.26 17.9
8/3/2004 15:25 89.48 39.68 17.5
8/3/2004 15:55 89.48 37.08 15.8
8/3/2004 16:25 88.01 37.16 16.6
8/3/2004 16:55 86.55 38.46 18.3
8/3/2004 17:25 85.83 34.8 16.2
8/3/2004 17:55 84.38 33.66 16.2
8/3/2004 18:25 82.24 36.04 19.1
8/3/2004 18:55 79.41 43.58 28.1
8/3/2004 19:25 77.31 46.22 33.3
8/3/2004 19:55 75.22 47.4 37.3
8/3/2004 20:25 74.53 48.5 39.8
8/3/2004 20:55 72.46 49.58 44.4
8/3/2004 21:25 71.77 50.12 46.4
8/3/2004 21:55 70.39 50.34 49
8/3/2004 22:25 69.02 50.2 51.1
8/3/2004 22:55 68.33 50.9 53.7
8/3/2004 23:25 68.33 51.16 54.2
8/3/2004 23:55 67.65 50.28 53.7
8/4/2004 0:25 66.96 50.42 55.3
8/4/2004 0:55 65.59 49.16 55.3
8/4/2004 1:25 65.59 49.4 55.8
8/4/2004 1:55 64.91 49.46 57.3
8/4/2004 2:25 64.22 49.56 58.9
8/4/2004 2:55 64.22 49.8 59.4
8/4/2004 3:25 63.54 49.86 61
8/4/2004 3:55 62.85 48.96 60.4
8/4/2004 4:25 62.17 48.58 61
8/4/2004 4:55 62.17 48.3 60.4
8/4/2004 5:25 61.48 48.36 62
8/4/2004 5:55 62.17 48.08 59.9
8/4/2004 6:25 66.96 49.88 54.2
8/4/2004 6:55 73.15 50.2 44.4
8/4/2004 7:25 75.22 46.68 36.3
8/4/2004 7:55 77.31 36.66 23
8/4/2004 8:25 79.41 30.26 16.6
8/4/2004 8:55 80.82 32.7 17.5
8/4/2004 9:25 82.95 29.94 14.6
8/4/2004 9:55 83.67 29.3 13.9
8/4/2004 10:25 85.1 29.72 13.5
8/4/2004 10:55 86.55 29.36 12.7
8/4/2004 11:25 87.28 27.08 11.3
8/4/2004 11:55 88.01 27.64 11.3
8/4/2004 12:25 89.48 27.88 10.9
8/4/2004 12:55 90.22 29.32 11.3
8/4/2004 13:25 90.22 28.44 10.9
8/4/2004 13:55 90.22 23.3 8.8
8/4/2004 14:25 91.71 27 9.8
8/4/2004 14:55 90.96 23.86 8.8
8/4/2004 15:25 91.71 13.9 5.6
8/4/2004 15:55 89.48 22.76 8.8
8/4/2004 16:25 87.28 24.62 10.2
8/4/2004 16:55 87.28 28.54 12
8/4/2004 17:25 85.83 29.54 13.1
8/4/2004 17:55 82.95 29.94 14.6
8/4/2004 18:25 81.53 31.36 16.2
8/4/2004 18:55 80.12 30.84 16.6
8/4/2004 19:25 78.71 31 17.5
8/4/2004 19:55 77.31 30.42 17.9
8/4/2004 20:25 76.62 30.92 18.7
8/4/2004 20:55 75.92 34.04 21.7
8/4/2004 21:25 75.22 34.92 23
8/4/2004 21:55 74.53 35.3 23.9
8/4/2004 22:25 74.53 38.1 26.7
8/4/2004 22:55 73.84 38.82 28.1
8/4/2004 23:25 73.15 38.22 28.1
8/4/2004 23:55 73.15 37.3 27.1
8/5/2004 0:25 71.77 32.56 23.5
8/5/2004 0:55 71.08 31.02 22.6
8/5/2004 1:25 71.77 30.6 21.7
8/5/2004 1:55 71.77 29.56 20.8
8/5/2004 2:25 71.77 30.14 21.3
8/5/2004 2:55 71.77 29.56 20.8
8/5/2004 3:25 71.77 30.14 21.3
8/5/2004 3:55 71.08 29.58 21.3
8/5/2004 4:25 70.39 29 21.3
8/5/2004 4:55 70.39 29.9 22.1
8/5/2004 5:25 71.08 29 20.8
8/5/2004 5:55 71.77 29.08 20.4
8/5/2004 6:25 73.15 26.5 17.5
8/5/2004 6:55 75.22 36.82 24.8
8/5/2004 7:25 78.01 29.72 17
8/5/2004 7:55 80.82 12.66 7.5
8/5/2004 8:25 82.95 15.98 8.1
8/5/2004 8:55 83.67 4.84 4.8
8/5/2004 9:25 87.28 5.94 4.5
8/5/2004 9:55 88.01 18.84 7.8
8/5/2004 10:25 89.48 19.92 7.8
8/5/2004 10:55 92.46 16.76 6.2
8/5/2004 11:25 93.97 22.28 7.5
8/5/2004 11:55 93.97 21.32 7.2
8/5/2004 12:25 94.73 29.26 9.8
8/5/2004 12:55 96.26 30.42 9.8
8/5/2004 13:25 95.49 34.86 12
8/5/2004 13:55 95.49 34.86 12
8/5/2004 14:25 95.49 31.54 10.5
8/5/2004 14:55 94.73 34.26 12
8/5/2004 15:25 94.73 37.24 13.5
8/5/2004 15:55 93.97 35.88 13.1
8/5/2004 16:25 93.21 29.8 10.5
8/5/2004 16:55 92.46 24.14 8.5
8/5/2004 17:25 90.96 21 7.8
8/5/2004 17:55 88.74 20.26 8.1
8/5/2004 18:25 86.55 21.36 9.1
8/5/2004 18:55 84.38 20.74 9.5
8/5/2004 19:25 82.95 20.4 9.8
8/5/2004 19:55 81.53 18.6 9.5
8/5/2004 20:25 80.82 16.3 8.8
8/5/2004 20:55 80.82 17.08 9.1
8/5/2004 21:25 79.41 17.72 9.8
8/5/2004 21:55 78.71 19.66 10.9
8/5/2004 22:25 78.01 20.58 11.6
8/5/2004 22:55 77.31 21.6 12.4
8/5/2004 23:25 77.31 21.6 12.4
8/5/2004 23:55 76.62 21.62 12.7
8/6/2004 0:25 75.22 21.96 13.5
8/6/2004 0:55 74.53 22.1 13.9
8/6/2004 1:25 73.84 22.24 14.3
8/6/2004 1:55 73.15 21.02 13.9
8/6/2004 2:25 73.15 21.02 13.9
8/6/2004 2:55 72.46 21.14 14.3
8/6/2004 3:25 72.46 21.14 14.3
8/6/2004 3:55 71.77 20.6 14.3
8/6/2004 4:25 71.77 20.6 14.3
8/6/2004 4:55 71.77 20.6 14.3
8/6/2004 5:25 71.77 22.94 15.8
8/6/2004 5:55 71.08 22.4 15.8
8/6/2004 6:25 75.92 22.52 13.5
8/6/2004 6:55 82.24 17.36 8.8
8/6/2004 7:25 85.83 12 6.2
8/6/2004 7:55 85.1 8 5.3
8/6/2004 8:25 87.28 10.76 5.6
8/6/2004 8:55 88.74 12.98 5.9
8/6/2004 9:25 90.96 12.12 5.3
8/6/2004 9:55 92.46 14.42 5.6
8/6/2004 10:25 93.21 24.7 8.5
8/6/2004 10:55 94.73 26.66 8.8
8/6/2004 11:25 95.49 37.82 13.5
8/6/2004 11:55 96.26 41.8 15.4
8/6/2004 12:25 97.82 43.04 15.4
8/6/2004 12:55 99.39 45.6 16.2
8/6/2004 13:25 99.39 44.28 15.4
8/6/2004 13:55 99.39 42.34 14.3
8/6/2004 14:25 97.82 43.7 15.8
8/6/2004 14:55 97.04 41.74 15
8/6/2004 15:25 97.04 41.74 15
8/6/2004 15:55 96.26 41.12 15
8/6/2004 16:25 95.49 39.3 14.3
8/6/2004 16:55 93.97 38.62 14.6
8/6/2004 17:25 92.46 33.34 12.4
8/6/2004 17:55 90.96 35.02 13.9
8/6/2004 18:25 88.74 34 14.3
8/6/2004 18:55 87.28 35.34 15.8
8/6/2004 19:25 85.83 34.18 15.8
8/6/2004 19:55 84.38 34.26 16.6
8/6/2004 20:25 83.67 34.28 17
8/6/2004 20:55 82.95 33.7 17
8/6/2004 21:25 82.24 34.42 17.9
8/6/2004 21:55 81.53 34.94 18.7
8/6/2004 22:25 80.82 34.88 19.1
8/6/2004 22:55 80.12 34.84 19.5
8/6/2004 23:25 80.12 35.46 20
8/6/2004 23:55 78.71 34.8 20.4
8/7/2004 0:25 78.71 34.8 20.4
8/7/2004 0:55 78.01 34.24 20.4
8/7/2004 1:25 76.62 33.08 20.4
8/7/2004 1:55 76.62 33.56 20.8
8/7/2004 2:25 75.92 34.04 21.7
8/7/2004 2:55 75.22 33.92 22.1
8/7/2004 3:25 75.22 33.92 22.1
8/7/2004 3:55 74.53 33.34 22.1
8/7/2004 4:25 73.84 33.32 22.6
8/7/2004 4:55 73.15 32.2 22.1
8/7/2004 5:25 73.15 32.76 22.6
8/7/2004 5:55 74.53 33.9 22.6
8/7/2004 6:25 77.31 34.74 21.3
8/7/2004 6:55 82.95 33.12 16.6
8/7/2004 7:25 82.95 33.12 16.6
8/7/2004 7:55 85.83 31.7 14.3
8/7/2004 8:25 88.74 32.56 13.5
8/7/2004 8:55 89.48 29.4 11.6
8/7/2004 9:25 91.71 31.1 11.6
8/7/2004 9:55 93.21 36.04 13.5
8/7/2004 10:25 95.49 36.28 12.7
8/7/2004 10:55 96.26 37.66 13.1
8/7/2004 11:25 98.6 36.38 11.6
8/7/2004 11:55 98.6 40.24 13.5
8/7/2004 12:25 99.39 42.34 14.3
8/7/2004 12:55 100.18 44.22 15
8/7/2004 13:25 99.39 42.34 14.3
8/7/2004 13:55 99.39 42.88 14.6
8/7/2004 14:25 98.6 44.32 15.8
8/7/2004 14:55 99.39 43.6 15
8/7/2004 15:25 98.6 41 13.9
8/7/2004 15:55 98.6 38.08 12.4
8/7/2004 16:25 97.04 38.26 13.1
8/7/2004 16:55 95.49 39.3 14.3
8/7/2004 17:25 94.73 38.7 14.3
8/7/2004 17:55 92.46 38.8 15.4
8/7/2004 18:25 90.22 39.54 17
8/7/2004 18:55 88.74 40.24 18.3
8/7/2004 19:25 87.28 39.6 18.7
8/7/2004 19:55 86.55 39.56 19.1
8/7/2004 20:25 85.83 38.96 19.1
8/7/2004 20:55 84.38 38.32 19.5
8/7/2004 21:25 84.38 38.96 20
8/7/2004 21:55 83.67 38.38 20
8/7/2004 22:25 82.95 38.3 20.4
8/7/2004 22:55 82.24 38.82 21.3
8/7/2004 23:25 81.53 38.7 21.7
8/7/2004 23:55 80.82 38.58 22.1
8/8/2004 0:25 80.12 39 23
8/8/2004 0:55 79.41 38.42 23
8/8/2004 1:25 79.41 38.42 23
8/8/2004 1:55 79.41 38.98 23.5
8/8/2004 2:25 78.71 38.82 23.9
8/8/2004 2:55 78.01 37.8 23.5
8/8/2004 3:25 78.71 37.84 23
8/8/2004 3:55 78.01 38.22 23.9
8/8/2004 4:25 77.31 38.16 24.4
8/8/2004 4:55 76.62 37.06 23.9
8/8/2004 5:25 76.62 37.58 24.4
8/8/2004 5:55 77.31 37.64 23.9
8/8/2004 6:25 79.41 36.48 21.3
8/8/2004 6:55 84.38 36.7 18.3
8/8/2004 7:25 88.01 36.54 16.2
8/8/2004 7:55 90.22 37.68 15.8
8/8/2004 8:25 90.22 39.54 17
8/8/2004 8:55 89.48 41.4 18.7
8/8/2004 9:25 92.46 40.72 16.6
8/8/2004 9:55 95.49 43.76 17
8/8/2004 10:25 97.04 45.76 17.5
8/8/2004 10:55 99.39 46.26 16.6
8/8/2004 11:25 100.98 48.16 17
8/8/2004 11:55 100.98 49.54 17.9
8/8/2004 12:25 101.79 48.16 16.6
8/8/2004 12:55 101.79 48.8 17
8/8/2004 13:25 100.98 50.7 18.7
8/8/2004 13:55 101.79 50.78 18.3
8/8/2004 14:25 100.18 51.2 19.5
8/8/2004 14:55 99.39 50.54 19.5
8/8/2004 15:25 98.6 50.58 20
8/8/2004 15:55 98.6 49.9 19.5
8/8/2004 16:25 97.82 49.26 19.5
8/8/2004 16:55 96.26 48.68 20
8/8/2004 17:25 94.73 49.1 21.3
8/8/2004 17:55 93.97 49.46 22.1
8/8/2004 18:25 91.71 49.24 23.5
8/8/2004 18:55 90.22 49.96 25.3
8/8/2004 19:25 88.74 50.16 26.7
8/8/2004 19:55 88.01 49.94 27.1
8/8/2004 20:25 87.28 49.82 27.6
8/8/2004 20:55 86.55 49.68 28.1
8/8/2004 21:25 85.83 49.9 29
8/8/2004 21:55 85.1 49.28 29
8/8/2004 22:25 85.1 49.74 29.5
8/8/2004 22:55 85.1 49.74 29.5
8/8/2004 23:25 84.38 49.94 30.4
8/8/2004 23:55 83.67 49.76 30.9
8/9/2004 0:25 82.95 49.56 31.4
8/9/2004 0:55 82.24 49.38 31.9
8/9/2004 1:25 81.53 49.58 32.9
8/9/2004 1:55 80.82 49.7 33.8
8/9/2004 2:25 80.82 50.08 34.3
8/9/2004 2:55 79.41 49.62 35.3
8/9/2004 3:25 78.71 48.62 34.8
8/9/2004 3:55 78.71 49.38 35.8
8/9/2004 4:25 78.71 50.12 36.8
8/9/2004 4:55 78.01 50.22 37.8
8/9/2004 5:25 78.01 50.22 37.8
8/9/2004 5:55 78.01 50.22 37.8
8/9/2004 6:25 80.82 51.24 35.8
8/9/2004 6:55 85.83 51.18 30.4
8/9/2004 7:25 89.48 50.8 26.7
8/9/2004 7:55 89.48 49.34 25.3
8/9/2004 8:25 91.71 49.24 23.5
8/9/2004 8:55 93.21 49.44 22.6
8/9/2004 9:25 95.49 49.74 21.3
8/9/2004 9:55 95.49 50.24 21.7
8/9/2004 10:25 97.82 51 20.8
8/9/2004 10:55 99.39 50.54 19.5
8/9/2004 11:25 100.18 50.64 19.1
8/9/2004 11:55 100.98 52.52 20
8/9/2004 12:25 101.79 51.92 19.1
8/9/2004 12:55 102.6 52 18.7
8/9/2004 13:25 101.79 52.5 19.5
8/9/2004 13:55 101.79 53.18 20
8/9/2004 14:25 102.6 52.58 19.1
8/9/2004 14:55 102.6 54.38 20.4
8/9/2004 15:25 102.6 52 18.7
8/9/2004 15:55 100.98 53.06 20.4
8/9/2004 16:25 99.39 52.94 21.3
8/9/2004 16:55 96.26 54.06 24.4
8/9/2004 17:25 96.26 53.02 23.5
8/9/2004 17:55 95.49 52.84 23.9
8/9/2004 18:25 93.97 53.12 25.3
8/9/2004 18:55 91.71 52.68 26.7
8/9/2004 19:25 90.22 52.8 28.1
8/9/2004 19:55 88.74 52.4 29
8/9/2004 20:25 88.01 52.7 30
8/9/2004 20:55 87.28 52.42 30.4
8/9/2004 21:25 86.55 52.68 31.4
8/9/2004 21:55 85.83 52.9 32.4
8/9/2004 22:25 85.1 53.02 33.3
8/9/2004 22:55 84.38 53.2 34.3
8/9/2004 23:25 84.38 52.8 33.8
8/9/2004 23:55 82.95 51.94 34.3
8/10/2004 0:25 82.24 52.48 35.8
8/10/2004 0:55 81.53 52.6 36.8
8/10/2004 1:25 81.53 52.6 36.8
8/10/2004 1:55 81.53 52.24 36.3
8/10/2004 2:25 80.82 52.34 37.3
8/10/2004 2:55 80.82 52.34 37.3
8/10/2004 3:25 79.41 51.82 38.3
8/10/2004 3:55 78.71 51.9 39.3
8/10/2004 4:25 79.41 53.2 40.3
8/10/2004 4:55 78.71 53.56 41.8
8/10/2004 5:25 78.01 53.26 42.3
8/10/2004 5:55 78.71 53.24 41.3
8/10/2004 6:25 80.12 54.16 40.8
8/10/2004 6:55 82.95 54.24 37.3
8/10/2004 7:25 87.28 53.3 31.4
8/10/2004 7:55 89.48 52.56 28.5
8/10/2004 8:25 91.71 51.64 25.7
8/10/2004 8:55 93.21 50.48 23.5
8/10/2004 9:25 95.49 50.72 22.1
8/10/2004 9:55 97.04 52 22.1
8/10/2004 10:25 98.6 51.64 20.8
8/10/2004 10:55 100.98 50.12 18.3
8/10/2004 11:25 101.79 50.18 17.9
8/10/2004 11:55 102.6 51.42 18.3
8/10/2004 12:25 100.98 51.28 19.1
8/10/2004 12:55 102.6 50.82 17.9
8/10/2004 13:25 104.23 51.52 17.5
8/10/2004 13:55 100.98 51.84 19.5
8/10/2004 14:25 101.79 51.92 19.1
8/10/2004 14:55 100.18 52.94 20.8
8/10/2004 15:25 99.39 52.94 21.3
8/10/2004 15:55 99.39 52.3 20.8
8/10/2004 16:25 97.82 53.26 22.6
8/10/2004 16:55 96.26 54.06 24.4
8/10/2004 17:25 93.97 55 27.1
8/10/2004 17:55 90.96 55.22 30
8/10/2004 18:25 88.01 55.96 33.8
8/10/2004 18:55 86.55 56.66 36.3
8/10/2004 19:25 85.1 56.14 37.3
8/10/2004 19:55 84.38 57.28 39.8
8/10/2004 20:25 83.67 56.66 39.8
8/10/2004 20:55 82.24 56.74 41.8
8/10/2004 21:25 82.24 56.74 41.8
8/10/2004 21:55 80.82 57.44 44.9
8/10/2004 22:25 79.41 56.78 45.9
8/10/2004 22:55 79.41 57.08 46.4
8/10/2004 23:25 78.71 56.8 47
8/10/2004 23:55 78.01 57.3 49
8/11/2004 0:25 78.01 57.92 50.1
8/11/2004 0:55 77.31 57.56 50.6
8/11/2004 1:25 77.31 58.1 51.6
8/11/2004 1:55 76.62 57.46 51.6
8/11/2004 2:25 75.92 57.1 52.1
8/11/2004 2:55 75.92 57.1 52.1
8/11/2004 3:25 74.53 57.46 55.3
8/11/2004 3:55 74.53 57.96 56.3
8/11/2004 4:25 74.53 57.46 55.3
8/11/2004 4:55 73.84 57.06 55.8
8/11/2004 5:25 73.84 57.32 56.3
8/11/2004 5:55 75.22 57.8 54.7
8/11/2004 6:25 75.92 57.68 53.2
8/11/2004 6:55 79.41 58.02 48
8/11/2004 7:25 80.82 57.14 44.4
8/11/2004 7:55 83.67 57 40.3
8/11/2004 8:25 88.74 54.14 30.9
8/11/2004 8:55 87.28 55.32 33.8
8/11/2004 9:25 87.28 54.92 33.3
8/11/2004 9:55 88.74 53.68 30.4
8/11/2004 10:25 92.46 55.1 28.5
8/11/2004 10:55 92.46 53.72 27.1
8/11/2004 11:25 97.04 54.14 23.9
8/11/2004 11:55 97.82 52.64 22.1
8/11/2004 12:25 95.49 54.4 25.3
8/11/2004 12:55 96.26 52.44 23
8/11/2004 13:25 98.6 51.64 20.8
8/11/2004 13:55 98.6 52.28 21.3
8/11/2004 14:25 97.82 51 20.8
8/11/2004 14:55 95.49 50.24 21.7
8/11/2004 15:25 95.49 44.52 17.5
8/11/2004 15:55 93.97 44.46 18.3
8/11/2004 16:25 92.46 40.72 16.6
8/11/2004 16:55 91.71 34.88 13.5
8/11/2004 17:25 90.22 29.32 11.3
8/11/2004 17:55 88.01 25.16 10.2
8/11/2004 18:25 85.1 30.44 13.9
8/11/2004 18:55 83.67 22.56 10.5
8/11/2004 19:25 82.95 19.68 9.5
8/11/2004 19:55 82.95 18.66 9.1
8/11/2004 20:25 82.24 18.14 9.1
8/11/2004 20:55 81.53 19.32 9.8
8/11/2004 21:25 80.82 24.32 12.4
8/11/2004 21:55 80.82 28.26 14.6
8/11/2004 22:25 80.82 28.26 14.6
8/11/2004 22:55 80.12 29 15.4
8/11/2004 23:25 78.71 28.5 15.8
8/11/2004 23:55 78.71 29.1 16.2
8/12/2004 0:25 78.01 29.14 16.6
8/12/2004 0:55 77.31 28.58 16.6
8/12/2004 1:25 76.62 28.02 16.6
8/12/2004 1:55 77.31 26.76 15.4
8/12/2004 2:25 77.31 27.98 16.2
8/12/2004 2:55 76.62 28.02 16.6
8/12/2004 3:25 76.62 29.3 17.5
8/12/2004 3:55 75.92 30.36 18.7
8/12/2004 4:25 75.22 29.26 18.3
8/12/2004 4:55 74.53 29.74 19.1
8/12/2004 5:25 73.84 30.8 20.4
8/12/2004 5:55 74.53 31.36 20.4
8/12/2004 6:25 76.62 29.3 17.5
8/12/2004 6:55 80.82 31.98 17
8/12/2004 7:25 84.38 36.16 17.9
8/12/2004 7:55 84.38 38.96 20
8/12/2004 8:25 85.83 43.32 22.6
8/12/2004 8:55 87.28 45.54 23.5
8/12/2004 9:25 88.74 48.2 24.8
8/12/2004 9:55 90.96 49.06 23.9
8/12/2004 10:25 91.71 49.24 23.5
8/12/2004 10:55 93.97 49.46 22.1
8/12/2004 11:25 96.26 49.22 20.4
8/12/2004 11:55 93.97 47.34 20.4
8/12/2004 12:25 94.73 46.2 19.1
8/12/2004 12:55 94.73 45.08 18.3
8/12/2004 13:25 95.49 46.28 18.7
8/12/2004 13:55 96.26 46.9 18.7
8/12/2004 14:25 95.49 48.58 20.4
8/12/2004 14:55 95.49 50.24 21.7
8/12/2004 15:25 95.49 51.34 22.6
8/12/2004 15:55 96.26 52.44 23
8/12/2004 16:25 94.73 52.78 24.4
8/12/2004 16:55 91.71 52.68 26.7
8/12/2004 17:25 90.96 53.82 28.5
8/12/2004 17:55 88.74 53.68 30.4
8/12/2004 18:25 85.83 52.9 32.4
8/12/2004 18:55 83.67 51.44 32.9
8/12/2004 19:25 82.24 50.52 33.3
8/12/2004 19:55 80.82 49.3 33.3
8/12/2004 20:25 80.12 48.36 32.9
8/12/2004 20:55 80.12 48.68 33.3
8/12/2004 21:25 79.41 47.34 32.4
8/12/2004 21:55 79.41 48.06 33.3
8/12/2004 22:25 79.41 50.38 36.3
8/12/2004 22:55 78.71 48.62 34.8
8/12/2004 23:25 78.01 49.5 36.8
8/12/2004 23:55 77.31 49.24 37.3
8/13/2004 0:25 77.31 49.24 37.3
8/13/2004 0:55 76.62 48.98 37.8
8/13/2004 1:25 75.92 48.72 38.3
8/13/2004 1:55 76.62 49.34 38.3
8/13/2004 2:25 75.22 48.44 38.8
8/13/2004 2:55 75.22 48.1 38.3
8/13/2004 3:25 74.53 47.48 38.3
8/13/2004 3:55 74.53 47.48 38.3
8/13/2004 4:25 73.84 47.22 38.8
8/13/2004 4:55 73.15 47.28 39.8
8/13/2004 5:25 73.15 47.94 40.8
8/13/2004 5:55 73.15 47.94 40.8
8/13/2004 6:25 75.92 49.06 38.8
8/13/2004 6:55 80.12 49.08 33.8
8/13/2004 7:25 84.38 52.4 33.3
8/13/2004 7:55 84.38 53.98 35.3
8/13/2004 8:25 85.83 53.64 33.3
8/13/2004 8:55 87.28 51.14 29
8/13/2004 9:25 89.48 51.68 27.6
8/13/2004 9:55 90.96 49.62 24.4
8/13/2004 10:25 92.46 48.22 22.1
8/13/2004 10:55 92.46 47.74 21.7
8/13/2004 11:25 93.97 48.48 21.3
8/13/2004 11:55 94.73 44.5 17.9
8/13/2004 12:25 96.26 43.76 16.6
8/13/2004 12:55 95.49 46.84 19.1
8/13/2004 13:25 97.04 47.52 18.7
8/13/2004 13:55 96.26 48.68 20
8/13/2004 14:25 97.04 46.94 18.3
8/13/2004 14:55 96.26 47.46 19.1
8/13/2004 15:25 93.97 48.48 21.3
8/13/2004 15:55 93.97 48.48 21.3
8/13/2004 16:25 93.21 48.36 21.7
8/13/2004 16:55 90.22 47.42 23
8/13/2004 17:25 88.74 46.76 23.5
8/13/2004 17:55 86.55 45.92 24.4
8/13/2004 18:25 85.1 45.66 25.3
8/13/2004 18:55 82.24 47.74 30
8/13/2004 19:25 80.82 49.7 33.8
8/13/2004 19:55 80.12 49.86 34.8
8/13/2004 20:25 79.41 50.38 36.3
8/13/2004 20:55 78.01 50.58 38.3
8/13/2004 21:25 77.31 50.3 38.8
8/13/2004 21:55 76.62 50.36 39.8
8/13/2004 22:25 77.31 50.64 39.3
8/13/2004 22:55 76.62 50.7 40.3
8/13/2004 23:25 75.92 50.74 41.3
8/13/2004 23:55 75.92 50.74 41.3
8/14/2004 0:25 74.53 50.84 43.4
8/14/2004 0:55 73.84 51.12 44.9
8/14/2004 1:25 73.84 51.12 44.9
8/14/2004 1:55 73.84 51.72 45.9
8/14/2004 2:25 73.84 49.2 41.8
8/14/2004 2:55 73.15 47.6 40.3
8/14/2004 3:25 73.15 45.9 37.8
8/14/2004 3:55 72.46 45.3 37.8
8/14/2004 4:25 71.77 45.38 38.8
8/14/2004 4:55 71.08 45.76 40.3
8/14/2004 5:25 71.77 46.7 40.8
8/14/2004 5:55 72.46 48.66 42.9
8/14/2004 6:25 74.53 48.5 39.8
8/14/2004 6:55 78.71 45.48 30.9
8/14/2004 7:25 84.38 44.54 24.8
8/14/2004 7:55 85.1 48.44 28.1
8/14/2004 8:25 86.55 47.3 25.7
8/14/2004 8:55 89.48 48.38 24.4
8/14/2004 9:25 90.96 51.54 26.2
8/14/2004 9:55 92.46 51.3 24.8
8/14/2004 10:25 92.46 50.32 23.9
8/14/2004 10:55 93.97 49.46 22.1
8/14/2004 11:25 93.97 49.46 22.1
8/14/2004 11:55 94.73 50.7 22.6
8/14/2004 12:25 93.97 51.12 23.5
8/14/2004 12:55 93.21 50.94 23.9
8/14/2004 13:25 93.97 51.58 23.9
8/14/2004 13:55 93.97 51.12 23.5
8/14/2004 14:25 93.21 50.48 23.5
8/14/2004 14:55 93.97 48.48 21.3
8/14/2004 15:25 93.21 48.36 21.7
8/14/2004 15:55 90.96 48.04 23
8/14/2004 16:25 89.48 48.82 24.8
8/14/2004 16:55 88.01 49.54 26.7
8/14/2004 17:25 86.55 49.68 28.1
8/14/2004 17:55 85.83 49.06 28.1
8/14/2004 18:25 84.38 48.68 29
8/14/2004 18:55 82.95 48.7 30.4
8/14/2004 19:25 82.24 49.8 32.4
8/14/2004 19:55 80.82 50.08 34.3
8/14/2004 20:25 80.12 50.24 35.3
8/14/2004 20:55 78.71 50.12 36.8
8/14/2004 21:25 78.71 50.48 37.3
8/14/2004 21:55 78.01 49.86 37.3
8/14/2004 22:25 78.01 50.22 37.8
8/14/2004 22:55 78.01 50.22 37.8
8/14/2004 23:25 77.31 50.64 39.3
8/14/2004 23:55 76.62 50.02 39.3
8/15/2004 0:25 75.92 49.74 39.8
8/15/2004 0:55 75.22 49.46 40.3
8/15/2004 1:25 74.53 49.18 40.8
8/15/2004 1:55 73.84 49.52 42.3
8/15/2004 2:25 73.84 49.9 42.9
8/15/2004 2:55 72.46 49.88 44.9
8/15/2004 3:25 71.77 49.84 45.9
8/15/2004 3:55 71.77 50.48 47
8/15/2004 4:25 70.39 52.56 53.2
8/15/2004 4:55 69.71 51.68 52.7
8/15/2004 5:25 69.02 51.54 53.7
8/15/2004 5:55 69.71 51.92 53.2
8/15/2004 6:25 71.77 52.46 50.6
8/15/2004 6:55 74.53 51.74 44.9
8/15/2004 7:25 78.71 52.24 39.8
8/15/2004 7:55 78.71 50.12 36.8
8/15/2004 8:25 80.82 50.08 34.3
8/15/2004 8:55 82.95 49.56 31.4
8/15/2004 9:25 85.1 49.74 29.5
8/15/2004 9:55 86.55 49.68 28.1
8/15/2004 10:25 89.48 49.34 25.3
8/15/2004 10:55 90.96 49.62 24.4
8/15/2004 11:25 91.71 50.24 24.4
8/15/2004 11:55 93.21 50.94 23.9
8/15/2004 12:25 93.21 51.94 24.8
8/15/2004 12:55 94.73 51.76 23.5
8/15/2004 13:25 93.97 52.14 24.4
8/15/2004 13:55 93.97 52.14 24.4
8/15/2004 14:25 92.46 53.32 26.7
8/15/2004 14:55 92.46 53.32 26.7
8/15/2004 15:25 90.96 53.44 28.1
8/15/2004 15:55 89.48 53.5 29.5
8/15/2004 16:25 88.01 52.7 30
8/15/2004 16:55 86.55 52.68 31.4
8/15/2004 17:25 85.83 52.9 32.4
8/15/2004 17:55 84.38 53.2 34.3
8/15/2004 18:25 82.24 53.96 37.8
8/15/2004 18:55 81.53 54.4 39.3
8/15/2004 19:25 80.12 54.16 40.8
8/15/2004 19:55 79.41 54.52 42.3
8/15/2004 20:25 78.71 54.28 42.9
8/15/2004 20:55 78.01 53.96 43.4
8/15/2004 21:25 78.01 54.28 43.9
8/15/2004 21:55 77.31 54.56 45.4
8/15/2004 22:25 76.62 54.24 45.9
8/15/2004 22:55 75.92 54.26 47
8/15/2004 23:25 75.92 54.82 48
8/15/2004 23:55 75.22 54.76 49
8/16/2004 0:25 74.53 54.74 50.1
8/16/2004 0:55 73.84 54.64 51.1
8/16/2004 1:25 73.84 54.38 50.6
8/16/2004 1:55 72.46 53.9 52.1
8/16/2004 2:25 71.77 53.58 52.7
8/16/2004 2:55 71.77 54.34 54.2
8/16/2004 3:25 71.08 53.7 54.2
8/16/2004 3:55 70.39 53.62 55.3
8/16/2004 4:25 69.71 53.7 56.8
8/16/2004 4:55 69.71 53.94 57.3
8/16/2004 5:25 70.39 54.88 57.9
8/16/2004 5:55 69.71 54.7 58.9
8/16/2004 6:25 71.08 55.24 57.3
8/16/2004 6:55 74.53 55 50.6
8/16/2004 7:25 78.71 54.6 43.4
8/16/2004 7:55 78.71 53.24 41.3
8/16/2004 8:25 80.82 53.42 38.8
8/16/2004 8:55 82.24 52.1 35.3
8/16/2004 9:25 84.38 52.06 32.9
8/16/2004 9:55 85.83 52.48 31.9
8/16/2004 10:25 88.74 51.92 28.5
8/16/2004 10:55 89.48 53.04 29
8/16/2004 11:25 90.96 53.44 28.1
8/16/2004 11:55 92.46 52.28 25.7
8/16/2004 12:25 93.21 52.9 25.7
8/16/2004 12:55 94.73 50.7 22.6
8/16/2004 13:25 94.73 51.76 23.5
8/16/2004 13:55 93.21 49.9 23
8/16/2004 14:25 94.73 50.7 22.6
8/16/2004 14:55 93.97 49.46 22.1
8/16/2004 15:25 92.46 50.32 23.9
8/16/2004 15:55 91.71 49.24 23.5
8/16/2004 16:25 90.22 49.44 24.8
8/16/2004 16:55 88.01 51.3 28.5
8/16/2004 17:25 87.28 51.14 29
8/16/2004 17:55 85.1 51.86 31.9
8/16/2004 18:25 82.95 50.82 32.9
8/16/2004 18:55 81.53 50.7 34.3
8/16/2004 19:25 80.82 51.24 35.8
8/16/2004 19:55 78.71 52.58 40.3
8/16/2004 20:25 78.01 52.94 41.8
8/16/2004 20:55 77.31 52.32 41.8
8/16/2004 21:25 77.31 53.34 43.4
8/16/2004 21:55 76.62 53.02 43.9
8/16/2004 22:25 75.92 52.08 43.4
8/16/2004 22:55 75.22 51.76 43.9
8/16/2004 23:25 74.53 52.34 45.9
8/16/2004 23:55 73.84 52.36 47
8/17/2004 0:25 72.46 51.38 47.5
8/17/2004 0:55 72.46 51.96 48.5
8/17/2004 1:25 72.46 52.84 50.1
8/17/2004 1:55 71.77 53 51.6
8/17/2004 2:25 70.39 52 52.1
8/17/2004 2:55 70.39 53.62 55.3
8/17/2004 3:25 69.71 53.22 55.8
8/17/2004 3:55 69.02 52.82 56.3
8/17/2004 4:25 68.33 51.94 55.8
8/17/2004 4:55 68.33 52.66 57.3
8/17/2004 5:25 68.33 52.18 56.3
8/17/2004 5:55 68.33 51.94 55.8
8/17/2004 6:25 70.39 52.82 53.7
8/17/2004 6:55 75.92 53 44.9
8/17/2004 7:25 80.82 51.62 36.3
8/17/2004 7:55 80.82 49.7 33.8
8/17/2004 8:25 82.24 46.38 28.5
8/17/2004 8:55 85.1 46.58 26.2
8/17/2004 9:25 85.1 47.08 26.7
8/17/2004 9:55 87.28 46.54 24.4
8/17/2004 10:25 89.48 46.8 23
8/17/2004 10:55 91.71 44.96 20
8/17/2004 11:25 92.46 42.68 17.9
8/17/2004 11:55 92.46 42.68 17.9
8/17/2004 12:25 93.97 41.92 16.6
8/17/2004 12:55 94.73 41.9 16.2
8/17/2004 13:25 94.73 39.92 15
8/17/2004 13:55 94.73 40.6 15.4
8/17/2004 14:25 94.73 39.92 15
8/17/2004 14:55 95.49 39.3 14.3
8/17/2004 15:25 94.73 41.26 15.8
8/17/2004 15:55 93.21 41.32 16.6
8/17/2004 16:25 90.96 44.34 20
8/17/2004 16:55 88.74 43.56 20.8
8/17/2004 17:25 87.28 44.52 22.6
8/17/2004 17:55 85.83 45.74 24.8
8/17/2004 18:25 82.24 47.74 30
8/17/2004 18:55 80.82 46.52 30
8/17/2004 19:25 79.41 48.06 33.3
8/17/2004 19:55 78.71 48.62 34.8
8/17/2004 20:25 78.01 48.38 35.3
8/17/2004 20:55 76.62 48.62 37.3
8/17/2004 21:25 76.62 50.02 39.3
8/17/2004 21:55 75.22 50.44 41.8
8/17/2004 22:25 74.53 50.52 42.9
8/17/2004 22:55 73.15 50.2 44.4
8/17/2004 23:25 72.46 50.46 45.9
8/17/2004 23:55 72.46 51.38 47.5
8/18/2004 0:25 71.77 51.6 49
8/18/2004 0:55 70.39 50.62 49.5
8/18/2004 1:25 69.71 50.58 50.6
8/18/2004 1:55 69.02 50.72 52.1
8/18/2004 2:25 69.02 49.68 50.1
8/18/2004 2:55 68.33 50.1 52.1
8/18/2004 3:25 66.96 50.14 54.7
8/18/2004 3:55 66.96 49.38 53.2
8/18/2004 4:25 66.28 50.28 56.3
8/18/2004 4:55 65.59 50.62 58.4
8/18/2004 5:25 64.91 49.74 57.9
8/18/2004 5:55 65.59 49.4 55.8
8/18/2004 6:25 67.65 52.3 57.9
8/18/2004 6:55 73.84 52.02 46.4
8/18/2004 7:25 79.41 50 35.8
8/18/2004 7:55 77.31 47.4 34.8
8/18/2004 8:25 79.41 48.86 34.3
8/18/2004 8:55 80.82 45.62 29
8/18/2004 9:25 82.95 42.36 23.9
8/18/2004 9:55 84.38 44.54 24.8
8/18/2004 10:25 87.28 35.96 16.2
8/18/2004 10:55 88.74 37.74 16.6
8/18/2004 11:25 90.22 40.28 17.5
8/18/2004 11:55 90.22 38.92 16.6
8/18/2004 12:25 91.71 41.48 17.5
8/18/2004 12:55 92.46 41.34 17
8/18/2004 13:25 92.46 40.72 16.6
8/18/2004 13:55 93.21 39.4 15.4
8/18/2004 14:25 93.21 38.04 14.6
8/18/2004 14:55 93.21 38.72 15
8/18/2004 15:25 92.46 38.8 15.4
8/18/2004 15:55 90.96 38.26 15.8
8/18/2004 16:25 89.48 40.26 17.9
8/18/2004 16:55 88.01 41.28 19.5
8/18/2004 17:25 85.83 42.72 22.1
8/18/2004 17:55 83.67 43.5 24.4
8/18/2004 18:25 80.12 46.68 30.9
8/18/2004 18:55 78.71 46.72 32.4
8/18/2004 19:25 76.62 49.34 38.3
8/18/2004 19:55 75.22 48.44 38.8
8/18/2004 20:25 73.84 48.56 40.8
8/18/2004 20:55 73.84 48.88 41.3
8/18/2004 21:25 72.46 48.28 42.3
8/18/2004 21:55 71.08 48.62 44.9
8/18/2004 22:25 71.08 49.84 47
8/18/2004 22:55 71.08 50.7 48.5
8/18/2004 23:25 69.71 50.84 51.1
8/18/2004 23:55 69.02 51.54 53.7
8/19/2004 0:25 68.33 51.16 54.2
8/19/2004 0:55 67.65 51.78 56.8
8/19/2004 1:25 66.96 52.36 59.4
8/19/2004 1:55 65.59 51.3 59.9
8/19/2004 2:25 65.59 52.24 62
8/19/2004 2:55 64.91 51.6 62
8/19/2004 3:25 64.22 51.6 63.5
8/19/2004 3:55 64.22 52.48 65.6
8/19/2004 4:25 64.22 52.88 66.6
8/19/2004 4:55 62.85 51.58 66.6
8/19/2004 5:25 62.17 52.12 69.6
8/19/2004 5:55 62.17 50.92 66.6
8/19/2004 6:25 64.22 53.88 69.1
8/19/2004 6:55 70.39 56.04 60.4
8/19/2004 7:25 74.53 53.56 48
8/19/2004 7:55 74.53 50.52 42.9
8/19/2004 8:25 77.31 44.68 31.4
8/19/2004 8:55 79.41 40.86 25.3
8/19/2004 9:25 81.53 39.16 22.1
8/19/2004 9:55 83.67 29.3 13.9
8/19/2004 10:25 85.83 31 13.9
8/19/2004 10:55 88.01 33.42 14.3
8/19/2004 11:25 88.74 35.86 15.4
8/19/2004 11:55 90.22 32.2 12.7
8/19/2004 12:25 91.71 31.1 11.6
8/19/2004 12:55 92.46 29.24 10.5
8/19/2004 13:25 93.21 31.62 11.3
8/19/2004 13:55 93.21 29.1 10.2
8/19/2004 14:25 93.21 31.62 11.3
8/19/2004 14:55 93.21 32.26 11.6
8/19/2004 15:25 91.71 34.88 13.5
8/19/2004 15:55 91.71 36.84 14.6
8/19/2004 16:25 90.22 40.86 17.9
8/19/2004 16:55 88.01 40.2 18.7
8/19/2004 17:25 85.1 42.72 22.6
8/19/2004 17:55 82.24 45.52 27.6
8/19/2004 18:25 78.01 46.52 32.9
8/19/2004 18:55 76.62 49.34 38.3
8/19/2004 19:25 74.53 48.5 39.8
8/19/2004 19:55 73.84 47.56 39.3
8/19/2004 20:25 73.15 45.56 37.3
8/19/2004 20:55 72.46 44.24 36.3
8/19/2004 21:25 71.77 41.08 32.9
8/19/2004 21:55 71.08 40.48 32.9
8/19/2004 22:25 69.71 39.96 33.8
8/19/2004 22:55 69.71 40.34 34.3
8/19/2004 23:25 68.33 38.76 33.8
8/19/2004 23:55 68.33 38.76 33.8
8/20/2004 0:25 67.65 37.48 32.9
8/20/2004 0:55 66.28 35.1 31.4
8/20/2004 1:25 66.28 34.3 30.4
8/20/2004 1:55 65.59 32.52 29
8/20/2004 2:25 64.91 29.9 26.7
8/20/2004 2:55 64.91 28.98 25.7
8/20/2004 3:25 63.54 27.8 25.7
8/20/2004 3:55 62.85 25.48 23.9
8/20/2004 4:25 62.85 26.36 24.8
8/20/2004 4:55 62.17 27.92 27.1
8/20/2004 5:25 62.17 29.16 28.5
8/20/2004 5:55 61.48 29.4 29.5
8/20/2004 6:25 63.54 28.28 26.2
8/20/2004 6:55 71.77 38.28 29.5
8/20/2004 7:25 78.01 29.72 17
8/20/2004 7:55 77.31 20.04 11.6
8/20/2004 8:25 80.12 16.54 9.1
8/20/2004 8:55 81.53 13.18 7.5
8/20/2004 9:25 83.67 15.64 7.8
8/20/2004 9:55 85.1 16.7 7.8
8/20/2004 10:25 87.28 19.18 8.1
8/20/2004 10:55 88.74 17.52 7.2
8/20/2004 11:25 90.22 20.46 7.8
8/20/2004 11:55 90.96 21 7.8
8/20/2004 12:25 92.46 24.14 8.5
8/20/2004 12:55 92.46 26.8 9.5
8/20/2004 13:25 92.46 29.24 10.5
8/20/2004 13:55 92.46 30.14 10.9
8/20/2004 14:25 92.46 23 8.1
8/20/2004 14:55 92.46 24.14 8.5
8/20/2004 15:25 92.46 24.14 8.5
8/20/2004 15:55 90.96 26.44 9.8
8/20/2004 16:25 88.74 26.42 10.5
8/20/2004 16:55 88.01 26.76 10.9
8/20/2004 17:25 86.55 27.14 11.6
8/20/2004 17:55 85.1 27.64 12.4
8/20/2004 18:25 82.24 27.48 13.5
8/20/2004 18:55 80.12 28.36 15
8/20/2004 19:25 78.71 32.64 18.7
8/20/2004 19:55 76.62 36.62 23.5
8/20/2004 20:25 75.22 36.82 24.8
8/20/2004 20:55 73.84 37.52 26.7
8/20/2004 21:25 73.15 37.3 27.1
8/20/2004 21:55 71.77 37.04 28.1
8/20/2004 22:25 70.39 36.22 28.5
8/20/2004 22:55 69.71 35.64 28.5
8/20/2004 23:25 69.02 35.04 28.5
8/20/2004 23:55 67.65 33.86 28.5
8/21/2004 0:25 66.96 32.48 27.6
8/21/2004 0:55 66.28 31.9 27.6
8/21/2004 1:25 66.28 31.9 27.6
8/21/2004 1:55 65.59 31.74 28.1
8/21/2004 2:25 64.91 29.9 26.7
8/21/2004 2:55 64.91 29.44 26.2
8/21/2004 3:25 64.22 29.32 26.7
8/21/2004 3:55 63.54 27.8 25.7
8/21/2004 4:25 63.54 28.28 26.2
8/21/2004 4:55 63.54 28.74 26.7
8/21/2004 5:25 62.85 28.16 26.7
8/21/2004 5:55 62.85 28.16 26.7
8/21/2004 6:25 65.59 30.5 26.7
8/21/2004 6:55 71.77 31.04 22.1
8/21/2004 7:25 77.31 25.48 14.6
8/21/2004 7:55 75.92 21.08 12.7
8/21/2004 8:25 78.71 19.66 10.9
8/21/2004 8:55 80.12 15.78 8.8
8/21/2004 9:25 82.24 22.36 10.9
8/21/2004 9:55 85.1 10.38 5.9
8/21/2004 10:25 87.28 14.12 6.5
8/21/2004 10:55 88.74 11.8 5.6
8/21/2004 11:25 91.71 12.64 5.3
8/21/2004 11:55 92.46 17.84 6.5
8/21/2004 12:25 93.21 21.72 7.5
8/21/2004 12:55 93.97 23.2 7.8
8/21/2004 13:25 95.49 26.38 8.5
8/21/2004 13:55 94.73 30.96 10.5
8/21/2004 14:25 94.73 32.78 11.3
8/21/2004 14:55 93.97 29.66 10.2
8/21/2004 15:25 93.21 29.8 10.5
8/21/2004 15:55 92.46 30.14 10.9
8/21/2004 16:25 91.71 30.46 11.3
8/21/2004 16:55 90.22 30.8 12
8/21/2004 17:25 88.01 30.48 12.7
8/21/2004 17:55 85.83 31.7 14.3
8/21/2004 18:25 83.67 31.82 15.4
8/21/2004 18:55 81.53 32.56 17
8/21/2004 19:25 80.12 33.24 18.3
8/21/2004 19:55 78.71 33.16 19.1
8/21/2004 20:25 78.01 33.74 20
8/21/2004 20:55 76.62 34.16 21.3
8/21/2004 21:25 75.22 33.46 21.7
8/21/2004 21:55 74.53 33.9 22.6
8/21/2004 22:25 73.15 33.18 23
8/21/2004 22:55 72.46 33.56 23.9
8/21/2004 23:25 71.77 32.98 23.9
8/21/2004 23:55 71.08 32.92 24.4
8/22/2004 0:25 70.39 33.24 25.3
8/22/2004 0:55 70.39 34.12 26.2
8/22/2004 1:25 69.71 34 26.7
8/22/2004 1:55 68.33 34.1 28.1
8/22/2004 2:25 68.33 34.46 28.5
8/22/2004 2:55 67.65 34.3 29
8/22/2004 3:25 66.96 34.56 30
8/22/2004 3:55 66.28 34.7 30.9
8/22/2004 4:25 66.28 34.7 30.9
8/22/2004 4:55 66.28 35.1 31.4
8/22/2004 5:25 65.59 34.9 31.9
8/22/2004 5:55 64.91 34.3 31.9
8/22/2004 6:25 68.33 34.88 29
8/22/2004 6:55 74.53 34.88 23.5
8/22/2004 7:25 80.82 34.88 19.1
8/22/2004 7:55 80.12 33.78 18.7
8/22/2004 8:25 83.67 32.46 15.8
8/22/2004 8:55 84.38 29.16 13.5
8/22/2004 9:25 85.83 25.96 11.3
8/22/2004 9:55 87.28 25.3 10.5
8/22/2004 10:25 88.74 31.06 12.7
8/22/2004 10:55 89.48 33.86 13.9
8/22/2004 11:25 92.46 31.04 11.3
8/22/2004 11:55 93.21 34.52 12.7
8/22/2004 12:25 93.97 37.38 13.9
8/22/2004 12:55 93.21 38.72 15
8/22/2004 13:25 93.21 38.04 14.6
8/22/2004 13:55 93.21 38.04 14.6
8/22/2004 14:25 93.21 35.3 13.1
8/22/2004 14:55 90.96 34.3 13.5
8/22/2004 15:25 90.96 34.3 13.5
8/22/2004 15:55 90.22 35.68 14.6
8/22/2004 16:25 88.74 37.12 16.2
8/22/2004 16:55 87.28 37.92 17.5
8/22/2004 17:25 85.83 34.18 15.8
8/22/2004 17:55 84.38 29.86 13.9
8/22/2004 18:25 82.24 28.88 14.3
8/22/2004 18:55 80.82 27.06 13.9
8/22/2004 19:25 79.41 28.44 15.4
8/22/2004 19:55 78.71 31.56 17.9
8/22/2004 20:25 77.31 32.02 19.1
8/22/2004 20:55 75.92 33 20.8
8/22/2004 21:25 75.22 34.48 22.6
8/22/2004 21:55 74.53 37.14 25.7
8/22/2004 22:25 73.84 37.52 26.7
8/22/2004 22:55 72.46 35.38 25.7
8/22/2004 23:25 71.77 35.28 26.2
8/22/2004 23:55 71.08 34.7 26.2
8/23/2004 0:25 70.39 34.12 26.2
8/23/2004 0:55 69.71 33.52 26.2
8/23/2004 1:25 69.71 32.66 25.3
8/23/2004 1:55 69.02 32.08 25.3
8/23/2004 2:25 68.33 31.5 25.3
8/23/2004 2:55 67.65 31.3 25.7
8/23/2004 3:25 66.96 31.66 26.7
8/23/2004 3:55 66.28 31.9 27.6
8/23/2004 4:25 66.28 32.34 28.1
8/23/2004 4:55 66.28 33.54 29.5
8/23/2004 5:25 66.28 32.68 28.5
8/23/2004 5:55 66.28 32.34 28.1
8/23/2004 6:25 68.33 32.82 26.7
8/23/2004 6:55 73.15 31.74 21.7
8/23/2004 7:25 77.31 26.76 15.4
8/23/2004 7:55 78.71 24.7 13.5
8/23/2004 8:25 79.41 22.46 12
8/23/2004 8:55 82.24 25.42 12.4
8/23/2004 9:25 82.95 37.8 20
8/23/2004 9:55 85.1 36.16 17.5
8/23/2004 10:25 85.1 34.84 16.6
8/23/2004 10:55 86.55 40.1 19.5
8/23/2004 11:25 86.55 40.1 19.5
8/23/2004 11:55 86.55 42.36 21.3
8/23/2004 12:25 86.55 45.38 23.9
8/23/2004 12:55 87.28 45.98 23.9
8/23/2004 13:25 88.01 45.58 23
8/23/2004 13:55 86.55 44.94 23.5
8/23/2004 14:25 84.38 46.48 26.7
8/23/2004 14:55 83.67 45.86 26.7
8/23/2004 15:25 82.24 47.28 29.5
8/23/2004 15:55 81.53 42.66 25.3
8/23/2004 16:25 80.82 42.46 25.7
8/23/2004 16:55 80.12 42.86 26.7
8/23/2004 17:25 79.41 43.12 27.6
8/23/2004 17:55 78.71 42.98 28.1
8/23/2004 18:25 78.01 42.76 28.5
8/23/2004 18:55 78.01 42.76 28.5
8/23/2004 19:25 77.31 42.16 28.5
8/23/2004 19:55 77.31 41.32 27.6
8/23/2004 20:25 76.62 42 29
8/23/2004 20:55 76.62 41.2 28.1
8/23/2004 21:25 75.92 40.6 28.1
8/23/2004 21:55 75.22 40 28.1
8/23/2004 22:25 75.22 40.36 28.5
8/23/2004 22:55 74.53 39.78 28.5
8/23/2004 23:25 74.53 40.66 29.5
8/23/2004 23:55 73.15 40.24 30.4
8/24/2004 0:25 71.77 40.28 31.9
8/24/2004 0:55 71.08 39.68 31.9
8/24/2004 1:25 69.71 39.58 33.3
8/24/2004 1:55 69.71 39.96 33.8
8/24/2004 2:25 69.71 40.34 34.3
8/24/2004 2:55 68.33 40.6 36.3
8/24/2004 3:25 67.65 40.34 36.8
8/24/2004 3:55 66.96 39.74 36.8
8/24/2004 4:25 66.28 39.46 37.3
8/24/2004 4:55 65.59 39.88 38.8
8/24/2004 5:25 65.59 40.84 40.3
8/24/2004 5:55 66.28 41.78 40.8
8/24/2004 6:25 69.02 43.26 39.3
8/24/2004 6:55 76.62 42.46 29.5
8/24/2004 7:25 80.12 36.46 20.8
8/24/2004 7:55 79.41 27.14 14.6
8/24/2004 8:25 82.24 25.42 12.4
8/24/2004 8:55 83.67 20.2 9.5
8/24/2004 9:25 85.1 18.7 8.5
8/24/2004 9:55 86.55 27.98 12
8/24/2004 10:25 88.01 31.24 13.1
8/24/2004 10:55 89.48 33.14 13.5
8/24/2004 11:25 90.96 32.18 12.4
8/24/2004 11:55 91.71 33.34 12.7
8/24/2004 12:25 91.71 31.1 11.6
8/24/2004 12:55 92.46 31.04 11.3
8/24/2004 13:25 92.46 31.68 11.6
8/24/2004 13:55 92.46 31.68 11.6
8/24/2004 14:25 92.46 30.14 10.9
8/24/2004 14:55 92.46 30.14 10.9
8/24/2004 15:25 91.71 31.1 11.6
8/24/2004 15:55 90.96 31.36 12
8/24/2004 16:25 90.22 26.84 10.2
8/24/2004 16:55 88.74 24.76 9.8
8/24/2004 17:25 88.01 20.84 8.5
8/24/2004 17:55 86.55 18.64 8.1
8/24/2004 18:25 84.38 18.96 8.8
8/24/2004 18:55 82.95 14.22 7.5
8/24/2004 19:25 80.82 22.74 11.6
8/24/2004 19:55 79.41 23.24 12.4
8/24/2004 20:25 78.01 24.16 13.5
8/24/2004 20:55 76.62 23.76 13.9
8/24/2004 21:25 74.53 23.92 15
8/24/2004 21:55 73.84 23.36 15
8/24/2004 22:25 72.46 23.5 15.8
8/24/2004 22:55 71.77 22.94 15.8
8/24/2004 23:25 71.08 22.98 16.2
8/24/2004 23:55 69.71 23.02 17
8/25/2004 0:25 68.33 22.58 17.5
8/25/2004 0:55 68.33 23.64 18.3
8/25/2004 1:25 69.02 24.2 18.3
8/25/2004 1:55 68.33 23.64 18.3
8/25/2004 2:25 67.65 23.6 18.7
8/25/2004 2:55 66.28 23.48 19.5
8/25/2004 3:25 66.28 24.08 20
8/25/2004 3:55 64.91 23.88 20.8
8/25/2004 4:25 64.22 23.88 21.3
8/25/2004 4:55 64.91 24.44 21.3
8/25/2004 5:25 64.22 24.32 21.7
8/25/2004 5:55 64.22 24.76 22.1
8/25/2004 6:25 64.91 24.88 21.7
8/25/2004 6:55 73.15 25.22 16.6
8/25/2004 7:25 78.01 24.16 13.5
8/25/2004 7:55 80.12 22.2 11.6
8/25/2004 8:25 82.95 23.76 11.3
8/25/2004 8:55 84.38 18.16 8.5
8/25/2004 9:25 86.55 18.64 8.1
8/25/2004 9:55 88.01 16.98 7.2
8/25/2004 10:25 89.48 15.7 6.5
8/25/2004 10:55 90.96 14.56 5.9
8/25/2004 11:25 91.71 19.68 7.2
8/25/2004 11:55 92.46 22.1 7.8
8/25/2004 12:25 93.97 18.92 6.5
8/25/2004 12:55 93.97 20.32 6.9
8/25/2004 13:25 93.97 22.28 7.5
8/25/2004 13:55 94.73 22.84 7.5
8/25/2004 14:25 93.97 22.28 7.5
8/25/2004 14:55 93.21 20.76 7.2
8/25/2004 15:25 92.46 23 8.1
8/25/2004 15:55 91.71 24.4 8.8
8/25/2004 16:25 90.22 24.1 9.1
8/25/2004 16:55 88.01 24.2 9.8
8/25/2004 17:25 86.55 24.06 10.2
8/25/2004 17:55 85.1 22.96 10.2
8/25/2004 18:25 82.95 22.02 10.5
8/25/2004 18:55 80.82 24.32 12.4
8/25/2004 19:25 79.41 23.8 12.7
8/25/2004 19:55 77.31 24.3 13.9
8/25/2004 20:25 76.62 25.58 15
8/25/2004 20:55 75.22 25.1 15.4
8/25/2004 21:25 75.22 25.72 15.8
8/25/2004 21:55 74.53 25.76 16.2
8/25/2004 22:25 74.53 26.92 17
8/25/2004 22:55 73.84 26.36 17
8/25/2004 23:25 72.46 26.48 17.9
8/25/2004 23:55 70.39 25.32 18.3
8/26/2004 0:25 69.71 25.28 18.7
8/26/2004 0:55 69.02 25.72 19.5
8/26/2004 1:25 68.33 25.78 20
8/26/2004 1:55 68.33 26.24 20.4
8/26/2004 2:25 68.33 25.78 20
8/26/2004 2:55 68.33 25.78 20
8/26/2004 3:25 68.33 25.78 20
8/26/2004 3:55 68.33 26.24 20.4
8/26/2004 4:25 67.65 25.68 20.4
8/26/2004 4:55 67.65 26.14 20.8
8/26/2004 5:25 66.96 25.58 20.8
8/26/2004 5:55 66.96 25.58 20.8
8/26/2004 6:25 69.02 26.34 20
8/26/2004 6:55 75.92 27.46 16.6
8/26/2004 7:25 79.41 25.96 13.9
8/26/2004 7:55 78.71 24.7 13.5
8/26/2004 8:25 82.95 27.3 13.1
8/26/2004 8:55 85.1 31.12 14.3
8/26/2004 9:25 87.28 33.36 14.6
8/26/2004 9:55 88.74 34 14.3
8/26/2004 10:25 90.22 32.2 12.7
8/26/2004 10:55 93.21 29.8 10.5
8/26/2004 11:25 93.97 32.84 11.6
8/26/2004 11:55 94.73 32.78 11.3
8/26/2004 12:25 93.21 36.78 13.9
8/26/2004 12:55 95.49 38.58 13.9
8/26/2004 13:25 96.26 36.28 12.4
8/26/2004 13:55 93.97 38.1 14.3
8/26/2004 14:25 92.46 43.24 18.3
8/26/2004 14:55 93.21 38.72 15
8/26/2004 15:25 93.97 33.68 12
8/26/2004 15:55 93.97 32.84 11.6
8/26/2004 16:25 90.96 33.54 13.1
8/26/2004 16:55 89.48 37.72 16.2
8/26/2004 17:25 87.28 39.6 18.7
8/26/2004 17:55 85.83 40.66 20.4
8/26/2004 18:25 83.67 41.98 23
8/26/2004 18:55 82.95 41.94 23.5
8/26/2004 19:25 80.82 41.54 24.8
8/26/2004 19:55 80.12 43.72 27.6
8/26/2004 20:25 78.01 46.12 32.4
8/26/2004 20:55 77.31 47.4 34.8
8/26/2004 21:25 75.92 46.18 34.8
8/26/2004 21:55 75.22 48.1 38.3
8/26/2004 22:25 74.53 48.5 39.8
8/26/2004 22:55 73.15 47.6 40.3
8/26/2004 23:25 72.46 47.96 41.8
8/26/2004 23:55 71.77 46.7 40.8
8/27/2004 0:25 71.77 45.04 38.3
8/27/2004 0:55 70.39 43.12 37.3
8/27/2004 1:25 69.71 42.86 37.8
8/27/2004 1:55 69.02 41.56 36.8
8/27/2004 2:25 68.33 40.24 35.8
8/27/2004 2:55 67.65 39.98 36.3
8/27/2004 3:25 66.96 40.08 37.3
8/27/2004 3:55 66.96 40.76 38.3
8/27/2004 4:25 66.28 40.82 39.3
8/27/2004 4:55 65.59 40.2 39.3
8/27/2004 5:25 65.59 40.84 40.3
8/27/2004 5:55 65.59 40.84 40.3
8/27/2004 6:25 67.65 42.36 39.8
8/27/2004 6:55 73.84 43.96 34.3
8/27/2004 7:25 77.31 43.06 29.5
8/27/2004 7:55 77.31 39.5 25.7
8/27/2004 8:25 80.12 39 23
8/27/2004 8:55 80.82 37.04 20.8
8/27/2004 9:25 82.95 37.8 20
8/27/2004 9:55 84.38 37.26 18.7
8/27/2004 10:25 87.28 37.18 17
8/27/2004 10:55 88.74 39.1 17.5
8/27/2004 11:25 90.22 39.54 17
8/27/2004 11:55 92.46 39.46 15.8
8/27/2004 12:25 94.73 32.78 11.3
8/27/2004 12:55 95.49 34.86 12
8/27/2004 13:25 96.26 41.12 15
8/27/2004 13:55 96.26 35.44 12
8/27/2004 14:25 96.26 36.88 12.7
8/27/2004 14:55 94.73 42.54 16.6
8/27/2004 15:25 93.97 43.88 17.9
8/27/2004 15:55 92.46 41.34 17
8/27/2004 16:25 91.71 42.06 17.9
8/27/2004 16:55 88.74 40.8 18.7
8/27/2004 17:25 86.55 43.32 22.1
8/27/2004 17:55 85.1 45.14 24.8
8/27/2004 18:25 82.24 46 28.1
8/27/2004 18:55 80.82 46.52 30
8/27/2004 19:25 79.41 46.5 31.4
8/27/2004 19:55 78.01 46.84 33.3
8/27/2004 20:25 77.31 47.4 34.8
8/27/2004 20:55 76.62 46.78 34.8
8/27/2004 21:25 76.62 47.16 35.3
8/27/2004 21:55 75.22 45.94 35.3
8/27/2004 22:25 74.53 45.32 35.3
8/27/2004 22:55 73.84 44.72 35.3
8/27/2004 23:25 72.46 44.24 36.3
8/27/2004 23:55 71.77 43.62 36.3
8/28/2004 0:25 71.77 43.62 36.3
8/28/2004 0:55 70.39 43.12 37.3
8/28/2004 1:25 70.39 42.42 36.3
8/28/2004 1:55 70.39 42.76 36.8
8/28/2004 2:25 69.02 42.58 38.3
8/28/2004 2:55 68.33 42.32 38.8
8/28/2004 3:25 67.65 41.7 38.8
8/28/2004 3:55 67.65 42.04 39.3
8/28/2004 4:25 67.65 40.34 36.8
8/28/2004 4:55 66.96 39.38 36.3
8/28/2004 5:25 66.28 39.12 36.8
8/28/2004 5:55 65.59 38.52 36.8
8/28/2004 6:25 67.65 38.54 34.3
8/28/2004 6:55 76.62 37.06 23.9
8/28/2004 7:25 81.53 25.44 12.7
8/28/2004 7:55 81.53 25.44 12.7
8/28/2004 8:25 85.1 14.88 7.2
8/28/2004 8:55 86.55 16.86 7.5
8/28/2004 9:25 88.74 22.2 8.8
8/28/2004 9:55 90.22 20.46 7.8
8/28/2004 10:25 91.71 16.22 6.2
8/28/2004 10:55 93.21 16.14 5.9
8/28/2004 11:25 95.49 18.92 6.2
8/28/2004 11:55 96.26 17.1 5.6
8/28/2004 12:25 97.82 23.1 6.9
8/28/2004 12:55 99.39 34.48 10.5
8/28/2004 13:25 99.39 33.76 10.2
8/28/2004 13:55 99.39 38.68 12.4
8/28/2004 14:25 99.39 36.32 11.3
8/28/2004 14:55 99.39 37.84 12
8/28/2004 15:25 98.6 34.82 10.9
8/28/2004 15:55 97.04 37.48 12.7
8/28/2004 16:25 94.73 33.42 11.6
8/28/2004 16:55 93.21 33.92 12.4
8/28/2004 17:25 90.96 27.4 10.2
8/28/2004 17:55 90.22 26.84 10.2
8/28/2004 18:25 87.28 28.54 12
8/28/2004 18:55 85.1 27.64 12.4
8/28/2004 19:25 83.67 24.3 11.3
8/28/2004 19:55 82.24 23.22 11.3
8/28/2004 20:25 81.53 23.28 11.6
8/28/2004 20:55 80.12 24.34 12.7
8/28/2004 21:25 79.41 25.26 13.5
8/28/2004 21:55 78.01 24.86 13.9
8/28/2004 22:25 76.62 24.42 14.3
8/28/2004 22:55 75.92 24.38 14.6
8/28/2004 23:25 75.22 24.46 15
8/28/2004 23:55 74.53 24.54 15.4
8/29/2004 0:25 73.84 23.98 15.4
8/29/2004 0:55 73.84 24.6 15.8
8/29/2004 1:25 72.46 23.5 15.8
8/29/2004 1:55 72.46 23.5 15.8
8/29/2004 2:25 71.08 22.98 16.2
8/29/2004 2:55 71.08 22.98 16.2
8/29/2004 3:25 70.39 23.58 17
8/29/2004 3:55 69.71 23.7 17.5
8/29/2004 4:25 69.02 23.68 17.9
8/29/2004 4:55 69.02 22.46 17
8/29/2004 5:25 69.71 23.02 17
8/29/2004 5:55 69.02 23.14 17.5
8/29/2004 6:25 71.08 22.98 16.2
8/29/2004 6:55 79.41 18.64 10.2
8/29/2004 7:25 83.67 18.42 8.8
8/29/2004 7:55 84.38 18.96 8.8
8/29/2004 8:25 88.74 20.26 8.1
8/29/2004 8:55 89.48 26.98 10.5
8/29/2004 9:25 92.46 24.14 8.5
8/29/2004 9:55 93.21 27.36 9.5
8/29/2004 10:25 95.49 29.08 9.5
8/29/2004 10:55 98.6 28.68 8.5
8/29/2004 11:25 98.6 31.4 9.5
8/29/2004 11:55 99.39 32.76 9.8
8/29/2004 12:25 100.18 32.58 9.5
8/29/2004 12:55 101.79 31.88 8.8
8/29/2004 13:25 102.6 32.48 8.8
8/29/2004 13:55 100.98 35.68 10.5
8/29/2004 14:25 100.98 35.68 10.5
8/29/2004 14:55 100.18 34.36 10.2
8/29/2004 15:25 99.39 33.76 10.2
8/29/2004 15:55 99.39 31.98 9.5
8/29/2004 16:25 98.6 33.16 10.2
8/29/2004 16:55 97.04 32.7 10.5
8/29/2004 17:25 94.73 29.26 9.8
8/29/2004 17:55 92.46 27.56 9.8
8/29/2004 18:25 89.48 26.28 10.2
8/29/2004 18:55 87.28 27.08 11.3
8/29/2004 19:25 85.83 28.2 12.4
8/29/2004 19:55 84.38 29.16 13.5
8/29/2004 20:25 83.67 30 14.3
8/29/2004 20:55 81.53 28.82 14.6
8/29/2004 21:25 80.12 29 15.4
8/29/2004 21:55 80.12 29 15.4
8/29/2004 22:25 78.71 29.1 16.2
8/29/2004 22:55 77.31 28.58 16.6
8/29/2004 23:25 77.31 30.96 18.3
8/29/2004 23:55 76.62 30.4 18.3
8/30/2004 0:25 75.92 30.36 18.7
8/30/2004 0:55 75.92 30.88 19.1
8/30/2004 1:25 75.22 31.94 20.4
8/30/2004 1:55 75.22 32.42 20.8
8/30/2004 2:25 74.53 32.9 21.7
8/30/2004 2:55 74.53 33.9 22.6
8/30/2004 3:25 73.84 34.72 23.9
8/30/2004 3:55 73.15 34.66 24.4
8/30/2004 4:25 72.46 34.98 25.3
8/30/2004 4:55 72.46 35.86 26.2
8/30/2004 5:25 72.46 36.34 26.7
8/30/2004 5:55 72.46 37.18 27.6
8/30/2004 6:25 75.22 38.22 26.2
8/30/2004 6:55 82.95 39.4 21.3
8/30/2004 7:25 87.28 39.06 18.3
8/30/2004 7:55 88.74 37.74 16.6
8/30/2004 8:25 91.71 38.86 15.8
8/30/2004 8:55 92.46 38.12 15
8/30/2004 9:25 94.73 36.48 13.1
8/30/2004 9:55 97.04 38.26 13.1
8/30/2004 10:25 98.6 36.38 11.6
8/30/2004 10:55 100.18 37.6 11.6
8/30/2004 11:25 102.6 40.3 12
8/30/2004 11:55 102.6 37.84 10.9
8/30/2004 12:25 103.41 37.5 10.5
8/30/2004 12:55 105.89 41.94 11.6
8/30/2004 13:25 103.41 40.06 11.6
8/30/2004 13:55 103.41 40.92 12
8/30/2004 14:25 102.6 41.14 12.4
8/30/2004 14:55 102.6 41.14 12.4
8/30/2004 15:25 102.6 41.14 12.4
8/30/2004 15:55 102.6 44.12 13.9
8/30/2004 16:25 102.6 41.76 12.7
8/30/2004 16:55 100.18 41.48 13.5
8/30/2004 17:25 98.6 42.26 14.6
8/30/2004 17:55 97.04 45 17
8/30/2004 18:25 93.97 45.6 19.1
8/30/2004 18:55 92.46 45.58 20
8/30/2004 19:25 90.96 46 21.3
8/30/2004 19:55 90.22 45.4 21.3
8/30/2004 20:25 88.01 45.58 23
8/30/2004 20:55 87.28 44.52 22.6
8/30/2004 21:25 85.83 44.34 23.5
8/30/2004 21:55 85.1 41.18 21.3
8/30/2004 22:25 83.67 41.52 22.6
8/30/2004 22:55 82.24 40.32 22.6
8/30/2004 23:25 81.53 39.74 22.6
8/30/2004 23:55 81.53 40.74 23.5
8/31/2004 0:25 80.82 40.58 23.9
8/31/2004 0:55 80.12 40 23.9
8/31/2004 1:25 78.71 39.76 24.8
8/31/2004 1:55 78.71 40.28 25.3
8/31/2004 2:25 78.71 40.68 25.7
8/31/2004 2:55 78.01 41.92 27.6
8/31/2004 3:25 77.31 41.32 27.6
8/31/2004 3:55 75.22 40.82 29
8/31/2004 4:25 75.22 40.82 29
8/31/2004 4:55 75.92 41.42 29
8/31/2004 5:25 75.92 41.42 29
8/31/2004 5:55 75.22 41.26 29.5
8/31/2004 6:25 76.62 41.56 28.5
8/31/2004 6:55 82.95 41.94 23.5
8/31/2004 7:25 89.48 42.48 19.5
8/31/2004 7:55 92.46 45.58 20
8/31/2004 8:25 96.26 42.48 15.8
8/31/2004 8:55 97.04 41.74 15
8/31/2004 9:25 98.6 42.98 15
8/31/2004 9:55 100.98 45.54 15.4
8/31/2004 10:25 100.18 44.22 15
8/31/2004 10:55 101.79 41.94 13.1
8/31/2004 11:25 102.6 41.76 12.7
8/31/2004 11:55 103.41 43.98 13.5
8/31/2004 12:25 104.23 41.56 12
8/31/2004 12:55 104.23 37.38 10.2
8/31/2004 13:25 105.89 37.62 9.8
8/31/2004 13:55 104.23 37.38 10.2
8/31/2004 14:25 105.89 36.82 9.5
8/31/2004 14:55 107.58 38.88 9.8
8/31/2004 15:25 105.06 43.66 12.7
8/31/2004 15:55 103.41 44.74 13.9
8/31/2004 16:25 101.79 45.48 15
8/31/2004 16:55 98.6 47.62 17.9
8/31/2004 17:25 97.04 47.52 18.7
8/31/2004 17:55 95.49 45.7 18.3
8/31/2004 18:25 93.21 47.22 20.8
8/31/2004 18:55 91.71 47.12 21.7
8/31/2004 19:25 90.22 47.42 23
8/31/2004 19:55 89.48 47.38 23.5
8/31/2004 20:25 88.01 47.14 24.4
8/31/2004 20:55 86.55 46.36 24.8
8/31/2004 21:25 85.83 46.28 25.3
8/31/2004 21:55 85.1 46.08 25.7
8/31/2004 22:25 83.67 45.86 26.7
8/31/2004 22:55 83.67 44.86 25.7
8/31/2004 23:25 82.24 44.16 26.2
8/31/2004 23:55 81.53 44.06 26.7